createdAt,value
2017-07-25T00:00:26.260Z,1000.39
2017-07-25T00:01:35.224Z,1000.39
2017-07-25T00:02:44.180Z,1000.39
2017-07-25T00:03:53.142Z,1000.39
2017-07-25T00:05:02.104Z,1000.38
2017-07-25T00:06:11.385Z,1000.41
2017-07-25T00:07:20.337Z,1000.38
2017-07-25T00:08:29.301Z,1000.33
2017-07-25T00:09:38.246Z,1000.35
2017-07-25T00:10:47.199Z,1000.33
2017-07-25T00:11:56.476Z,1000.32
2017-07-25T00:13:05.442Z,1000.3
2017-07-25T00:14:14.387Z,1000.26
2017-07-25T00:15:23.706Z,1000.23
2017-07-25T00:16:32.653Z,1000.27
2017-07-25T00:17:41.609Z,1000.22
2017-07-25T00:18:50.564Z,1000.22
2017-07-25T00:19:59.528Z,1000.21
2017-07-25T00:21:08.481Z,1000.18
2017-07-25T00:22:17.763Z,1000.22
2017-07-25T00:23:26.728Z,1000.19
2017-07-25T00:24:35.679Z,1000.17
2017-07-25T00:25:44.627Z,1000.17
2017-07-25T00:26:53.581Z,1000.17
2017-07-25T00:28:02.537Z,1000.15
2017-07-25T00:29:11.504Z,1000.16
2017-07-25T00:30:20.471Z,1000.11
2017-07-25T00:31:29.429Z,1000.1
2017-07-25T00:32:38.383Z,1000.13
2017-07-25T00:33:47.330Z,1000.08
2017-07-25T00:34:56.611Z,1000.09
2017-07-25T00:36:05.574Z,1000.08
2017-07-25T00:37:14.530Z,1000.08
2017-07-25T00:38:23.485Z,1000.01
2017-07-25T00:39:32.425Z,999.99
2017-07-25T00:40:41.369Z,999.97
2017-07-25T00:41:50.329Z,999.92
2017-07-25T00:42:59.283Z,999.88
2017-07-25T00:44:08.261Z,999.92
2017-07-25T00:45:17.210Z,999.9
2017-07-25T00:46:26.160Z,999.85
2017-07-25T00:47:35.117Z,999.86
2017-07-25T00:48:44.074Z,999.88
2017-07-25T00:49:53.027Z,999.84
2017-07-25T00:51:01.986Z,999.82
2017-07-25T00:52:10.939Z,999.85
2017-07-25T00:53:19.893Z,999.81
2017-07-25T00:54:28.840Z,999.83
2017-07-25T00:55:37.794Z,999.84
2017-07-25T00:56:46.742Z,999.82
2017-07-25T00:57:55.696Z,999.81
2017-07-25T00:59:04.652Z,999.83
2017-07-25T01:00:13.601Z,999.79
2017-07-25T01:01:22.566Z,999.8
2017-07-25T01:02:31.521Z,999.77
2017-07-25T01:03:40.470Z,999.77
2017-07-25T01:04:49.420Z,999.79
2017-07-25T01:05:58.373Z,999.75
2017-07-25T01:07:07.677Z,999.75
2017-07-25T01:08:16.645Z,999.74
2017-07-25T01:09:25.590Z,999.69
2017-07-25T01:10:34.546Z,999.68
2017-07-25T01:11:43.506Z,999.69
2017-07-25T01:12:52.461Z,999.66
2017-07-25T01:14:01.416Z,999.71
2017-07-25T01:15:10.365Z,999.66
2017-07-25T01:16:19.317Z,999.67
2017-07-25T01:17:28.288Z,999.66
2017-07-25T01:18:37.233Z,999.64
2017-07-25T01:19:46.200Z,999.66
2017-07-25T01:20:55.155Z,999.67
2017-07-25T01:22:04.108Z,999.69
2017-07-25T01:23:13.067Z,999.65
2017-07-25T01:24:22.344Z,999.69
2017-07-25T01:25:31.305Z,999.65
2017-07-25T01:26:40.263Z,999.64
2017-07-25T01:27:49.215Z,999.62
2017-07-25T01:28:58.170Z,999.65
2017-07-25T01:30:07.460Z,999.6
2017-07-25T01:31:16.415Z,999.58
2017-07-25T01:32:25.363Z,999.54
2017-07-25T01:33:34.315Z,999.52
2017-07-25T01:34:43.273Z,999.54
2017-07-25T01:35:52.218Z,999.51
2017-07-25T01:37:01.173Z,999.54
2017-07-25T01:38:10.122Z,999.56
2017-07-25T01:39:19.073Z,999.51
2017-07-25T01:40:28.023Z,999.52
2017-07-25T01:41:36.975Z,999.48
2017-07-25T01:42:45.932Z,999.48
2017-07-25T01:43:54.883Z,999.46
2017-07-25T01:45:03.835Z,999.46
2017-07-25T01:46:13.104Z,999.46
2017-07-25T01:47:22.072Z,999.46
2017-07-25T01:48:31.027Z,999.46
2017-07-25T01:49:39.980Z,999.44
2017-07-25T01:50:48.938Z,999.41
2017-07-25T01:51:57.898Z,999.44
2017-07-25T01:53:06.853Z,999.4
2017-07-25T01:54:15.814Z,999.43
2017-07-25T01:55:24.764Z,999.42
2017-07-25T01:56:33.727Z,999.42
2017-07-25T01:57:42.679Z,999.4
2017-07-25T01:58:51.627Z,999.41
2017-07-25T02:00:00.577Z,999.38
2017-07-25T02:01:09.538Z,999.39
2017-07-25T02:02:18.815Z,999.4
2017-07-25T02:03:27.774Z,999.43
2017-07-25T02:04:36.725Z,999.42
2017-07-25T02:05:45.677Z,999.36
2017-07-25T02:06:54.627Z,999.4
2017-07-25T02:08:03.578Z,999.44
2017-07-25T02:09:12.522Z,999.42
2017-07-25T02:10:21.476Z,999.33
2017-07-25T02:11:30.752Z,999.24
2017-07-25T02:12:39.715Z,999.24
2017-07-25T02:13:48.670Z,999.14
2017-07-25T02:14:57.622Z,999.03
2017-07-25T02:16:06.577Z,999.04
2017-07-25T02:17:15.526Z,999.18
2017-07-25T02:18:24.486Z,999.18
2017-07-25T02:19:33.444Z,999.27
2017-07-25T02:20:42.404Z,999.28
2017-07-25T02:21:52.014Z,999.24
2017-07-25T02:23:00.974Z,999.23
2017-07-25T02:24:10.252Z,999.25
2017-07-25T02:25:19.208Z,999.19
2017-07-25T02:26:28.182Z,999.06
2017-07-25T02:27:37.134Z,999.06
2017-07-25T02:28:46.088Z,999.04
2017-07-25T02:29:55.042Z,999.1
2017-07-25T02:31:04.345Z,999.16
2017-07-25T02:32:13.298Z,999.07
2017-07-25T02:33:22.266Z,999.09
2017-07-25T02:34:31.226Z,999.08
2017-07-25T02:35:40.197Z,998.93
2017-07-25T02:36:49.474Z,998.84
2017-07-25T02:37:58.752Z,998.74
2017-07-25T02:39:07.733Z,998.88
2017-07-25T02:40:16.692Z,999.01
2017-07-25T02:41:25.655Z,999.07
2017-07-25T02:42:34.612Z,999.1
2017-07-25T02:43:43.572Z,999.02
2017-07-25T02:44:52.518Z,999.02
2017-07-25T02:46:01.473Z,999.05
2017-07-25T02:47:10.434Z,998.92
2017-07-25T02:48:19.386Z,998.97
2017-07-25T02:49:28.348Z,998.92
2017-07-25T02:50:37.302Z,998.9
2017-07-25T02:51:46.252Z,998.89
2017-07-25T02:52:55.197Z,998.87
2017-07-25T02:54:04.158Z,998.88
2017-07-25T02:55:13.119Z,998.91
2017-07-25T02:56:22.076Z,998.91
2017-07-25T02:57:31.035Z,998.97
2017-07-25T02:58:39.992Z,999.04
2017-07-25T02:59:48.942Z,999.13
2017-07-25T03:00:57.895Z,999.25
2017-07-25T03:02:06.850Z,999.26
2017-07-25T03:03:15.803Z,999.21
2017-07-25T03:04:24.751Z,999.3
2017-07-25T03:05:33.710Z,999.21
2017-07-25T03:06:42.664Z,999.09
2017-07-25T03:07:51.611Z,999.2
2017-07-25T03:09:00.562Z,999.32
2017-07-25T03:10:09.515Z,999.41
2017-07-25T03:11:18.472Z,999.46
2017-07-25T03:12:27.428Z,999.49
2017-07-25T03:13:36.369Z,999.53
2017-07-25T03:14:45.321Z,999.53
2017-07-25T03:15:54.265Z,999.43
2017-07-25T03:17:03.219Z,999.33
2017-07-25T03:18:12.494Z,999.32
2017-07-25T03:19:21.769Z,999.28
2017-07-25T03:20:30.720Z,999.27
2017-07-25T03:21:39.674Z,999.22
2017-07-25T03:22:48.637Z,999.23
2017-07-25T03:23:57.590Z,999.15
2017-07-25T03:25:06.539Z,999.07
2017-07-25T03:26:15.500Z,999.09
2017-07-25T03:27:24.458Z,999.09
2017-07-25T03:28:33.417Z,998.97
2017-07-25T03:29:42.398Z,999.02
2017-07-25T03:30:51.364Z,998.97
2017-07-25T03:32:00.326Z,998.94
2017-07-25T03:33:09.276Z,998.94
2017-07-25T03:34:18.231Z,998.94
2017-07-25T03:35:27.181Z,998.89
2017-07-25T03:36:36.132Z,999.02
2017-07-25T03:37:45.079Z,998.93
2017-07-25T03:38:54.027Z,998.99
2017-07-25T03:40:02.979Z,999.06
2017-07-25T03:41:11.940Z,998.96
2017-07-25T03:42:20.899Z,998.93
2017-07-25T03:43:29.876Z,999
2017-07-25T03:44:38.833Z,999.01
2017-07-25T03:45:47.783Z,999.01
2017-07-25T03:46:56.736Z,999.02
2017-07-25T03:48:05.697Z,999.04
2017-07-25T03:49:14.649Z,998.95
2017-07-25T03:50:23.600Z,998.99
2017-07-25T03:51:32.557Z,999.02
2017-07-25T03:52:41.520Z,999.02
2017-07-25T03:53:50.470Z,998.99
2017-07-25T03:54:59.427Z,998.97
2017-07-25T03:56:08.383Z,999
2017-07-25T03:57:17.330Z,999.05
2017-07-25T03:58:26.286Z,999.11
2017-07-25T03:59:35.245Z,998.97
2017-07-25T04:00:44.207Z,999.02
2017-07-25T04:01:53.164Z,999.01
2017-07-25T04:03:02.124Z,999.08
2017-07-25T04:04:11.078Z,999.09
2017-07-25T04:05:20.029Z,999.03
2017-07-25T04:06:28.981Z,998.88
2017-07-25T04:07:37.941Z,998.88
2017-07-25T04:08:46.898Z,998.91
2017-07-25T04:09:55.845Z,998.91
2017-07-25T04:11:04.806Z,998.81
2017-07-25T04:12:13.757Z,998.7
2017-07-25T04:13:22.728Z,998.72
2017-07-25T04:14:31.669Z,998.71
2017-07-25T04:15:40.622Z,998.64
2017-07-25T04:16:49.585Z,998.67
2017-07-25T04:17:58.534Z,998.75
2017-07-25T04:19:07.489Z,998.66
2017-07-25T04:20:16.440Z,998.7
2017-07-25T04:21:25.712Z,998.7
2017-07-25T04:22:34.671Z,998.67
2017-07-25T04:23:43.647Z,998.69
2017-07-25T04:24:52.597Z,998.64
2017-07-25T04:26:01.562Z,998.65
2017-07-25T04:27:10.533Z,998.66
2017-07-25T04:28:19.814Z,998.62
2017-07-25T04:29:28.773Z,998.64
2017-07-25T04:30:37.723Z,998.73
2017-07-25T04:31:46.688Z,998.69
2017-07-25T04:32:55.636Z,998.69
2017-07-25T04:34:04.594Z,998.71
2017-07-25T04:35:13.553Z,998.68
2017-07-25T04:36:22.843Z,998.61
2017-07-25T04:37:31.810Z,998.48
2017-07-25T04:38:40.759Z,998.46
2017-07-25T04:39:49.718Z,998.44
2017-07-25T04:40:58.677Z,998.33
2017-07-25T04:42:07.635Z,998.37
2017-07-25T04:43:16.592Z,998.37
2017-07-25T04:44:25.552Z,998.4
2017-07-25T04:45:34.824Z,998.44
2017-07-25T04:46:43.773Z,998.47
2017-07-25T04:47:53.052Z,998.44
2017-07-25T04:49:01.997Z,998.36
2017-07-25T04:50:10.956Z,998.29
2017-07-25T04:51:19.911Z,998.26
2017-07-25T04:52:28.866Z,998.2
2017-07-25T04:53:37.819Z,998.13
2017-07-25T04:54:46.772Z,998.15
2017-07-25T04:55:55.723Z,998.09
2017-07-25T04:57:04.672Z,998.2
2017-07-25T04:58:13.625Z,998.28
2017-07-25T04:59:22.578Z,998.27
2017-07-25T05:00:31.535Z,998.32
2017-07-25T05:01:40.493Z,998.12
2017-07-25T05:02:49.776Z,998.09
2017-07-25T05:03:59.049Z,998.12
2017-07-25T05:05:07.995Z,998.06
2017-07-25T05:06:17.034Z,998.01
2017-07-25T05:07:25.982Z,997.96
2017-07-25T05:08:34.928Z,997.97
2017-07-25T05:09:43.885Z,998
2017-07-25T05:10:53.161Z,998.01
2017-07-25T05:12:02.109Z,998.02
2017-07-25T05:13:11.112Z,997.96
2017-07-25T05:14:20.068Z,997.97
2017-07-25T05:15:29.024Z,997.93
2017-07-25T05:16:37.977Z,997.89
2017-07-25T05:17:46.931Z,997.91
2017-07-25T05:18:56.208Z,997.92
2017-07-25T05:20:05.160Z,997.94
2017-07-25T05:21:14.125Z,997.82
2017-07-25T05:22:23.087Z,997.83
2017-07-25T05:23:32.036Z,997.75
2017-07-25T05:24:40.992Z,997.78
2017-07-25T05:25:49.943Z,997.72
2017-07-25T05:26:58.889Z,997.73
2017-07-25T05:28:07.836Z,997.73
2017-07-25T05:29:16.793Z,997.76
2017-07-25T05:30:25.745Z,997.82
2017-07-25T05:31:34.703Z,997.91
2017-07-25T05:32:43.658Z,997.96
2017-07-25T05:33:52.617Z,998
2017-07-25T05:35:01.577Z,998.04
2017-07-25T05:36:10.574Z,998.07
2017-07-25T05:37:19.522Z,998.1
2017-07-25T05:38:28.472Z,998.08
2017-07-25T05:39:37.434Z,998.21
2017-07-25T05:40:46.707Z,998.1
2017-07-25T05:41:55.657Z,997.93
2017-07-25T05:43:04.603Z,997.87
2017-07-25T05:44:13.560Z,997.82
2017-07-25T05:45:22.506Z,997.75
2017-07-25T05:46:31.452Z,997.69
2017-07-25T05:47:40.402Z,997.62
2017-07-25T05:48:49.349Z,997.67
2017-07-25T05:49:58.308Z,997.83
2017-07-25T05:51:07.272Z,997.91
2017-07-25T05:52:16.226Z,997.9
2017-07-25T05:53:25.172Z,998.02
2017-07-25T05:54:34.118Z,997.99
2017-07-25T05:55:43.073Z,997.98
2017-07-25T05:56:52.025Z,997.98
2017-07-25T05:58:00.975Z,997.99
2017-07-25T05:59:09.930Z,998
2017-07-25T06:00:18.893Z,998.04
2017-07-25T06:01:27.844Z,998
2017-07-25T06:02:36.796Z,997.96
2017-07-25T06:03:45.748Z,997.89
2017-07-25T06:04:54.699Z,997.81
2017-07-25T06:06:03.659Z,997.76
2017-07-25T06:07:12.609Z,997.62
2017-07-25T06:08:21.584Z,997.68
2017-07-25T06:09:30.527Z,997.67
2017-07-25T06:10:39.495Z,997.58
2017-07-25T06:11:48.443Z,997.59
2017-07-25T06:12:57.403Z,997.63
2017-07-25T06:14:06.359Z,997.61
2017-07-25T06:15:15.311Z,997.63
2017-07-25T06:16:24.263Z,997.53
2017-07-25T06:17:33.211Z,997.72
2017-07-25T06:18:42.168Z,997.79
2017-07-25T06:19:51.121Z,997.83
2017-07-25T06:21:00.102Z,997.83
2017-07-25T06:22:09.049Z,997.75
2017-07-25T06:23:17.998Z,997.75
2017-07-25T06:24:26.970Z,997.72
2017-07-25T06:25:35.915Z,997.79
2017-07-25T06:26:44.871Z,997.67
2017-07-25T06:27:53.827Z,997.69
2017-07-25T06:29:02.785Z,997.7
2017-07-25T06:30:11.738Z,997.63
2017-07-25T06:31:20.683Z,997.65
2017-07-25T06:32:29.967Z,997.71
2017-07-25T06:33:38.915Z,997.78
2017-07-25T06:34:47.866Z,997.82
2017-07-25T06:35:56.814Z,997.83
2017-07-25T06:37:06.094Z,997.81
2017-07-25T06:38:15.055Z,997.72
2017-07-25T06:39:24.006Z,997.75
2017-07-25T06:40:32.954Z,997.62
2017-07-25T06:41:41.900Z,997.67
2017-07-25T06:42:50.852Z,997.69
2017-07-25T06:43:59.809Z,997.65
2017-07-25T06:45:08.765Z,997.51
2017-07-25T06:46:17.724Z,997.38
2017-07-25T06:47:26.679Z,997.34
2017-07-25T06:48:35.629Z,997.41
2017-07-25T06:49:44.916Z,997.48
2017-07-25T06:50:53.871Z,997.64
2017-07-25T06:52:03.141Z,997.64
2017-07-25T06:53:12.108Z,997.75
2017-07-25T06:54:21.064Z,997.79
2017-07-25T06:55:30.023Z,997.82
2017-07-25T06:56:38.971Z,997.7
2017-07-25T06:57:47.928Z,997.63
2017-07-25T06:58:56.890Z,997.59
2017-07-25T07:00:06.172Z,997.59
2017-07-25T07:01:15.125Z,997.63
2017-07-25T07:02:24.076Z,997.48
2017-07-25T07:03:33.029Z,997.5
2017-07-25T07:04:41.981Z,997.51
2017-07-25T07:05:50.949Z,997.48
2017-07-25T07:06:59.899Z,997.58
2017-07-25T07:08:08.851Z,997.66
2017-07-25T07:09:17.802Z,997.74
2017-07-25T07:10:26.759Z,997.77
2017-07-25T07:11:35.724Z,997.78
2017-07-25T07:12:44.680Z,997.63
2017-07-25T07:13:53.638Z,997.73
2017-07-25T07:15:02.914Z,997.69
2017-07-25T07:16:11.869Z,997.56
2017-07-25T07:17:20.821Z,997.49
2017-07-25T07:18:29.778Z,997.49
2017-07-25T07:19:38.734Z,997.5
2017-07-25T07:20:47.685Z,997.52
2017-07-25T07:21:56.964Z,997.51
2017-07-25T07:23:05.932Z,997.43
2017-07-25T07:24:14.887Z,997.44
2017-07-25T07:25:23.846Z,997.57
2017-07-25T07:26:32.803Z,997.68
2017-07-25T07:27:41.764Z,997.66
2017-07-25T07:28:50.711Z,997.67
2017-07-25T07:29:59.671Z,997.71
2017-07-25T07:31:08.625Z,997.74
2017-07-25T07:32:17.587Z,997.65
2017-07-25T07:33:26.548Z,997.75
2017-07-25T07:34:35.500Z,997.82
2017-07-25T07:35:44.455Z,997.8
2017-07-25T07:36:53.426Z,997.88
2017-07-25T07:38:02.382Z,997.99
2017-07-25T07:39:11.341Z,997.87
2017-07-25T07:40:20.294Z,997.71
2017-07-25T07:41:29.242Z,997.74
2017-07-25T07:42:38.216Z,997.71
2017-07-25T07:43:47.165Z,997.82
2017-07-25T07:44:56.118Z,997.75
2017-07-25T07:46:05.400Z,997.63
2017-07-25T07:47:14.361Z,997.58
2017-07-25T07:48:23.317Z,997.58
2017-07-25T07:49:32.272Z,997.67
2017-07-25T07:50:41.230Z,997.64
2017-07-25T07:51:50.179Z,997.58
2017-07-25T07:52:59.133Z,997.61
2017-07-25T07:54:08.090Z,997.6
2017-07-25T07:55:17.037Z,997.57
2017-07-25T07:56:25.987Z,997.65
2017-07-25T07:57:34.949Z,997.72
2017-07-25T07:58:43.906Z,997.74
2017-07-25T07:59:52.865Z,997.64
2017-07-25T08:01:01.828Z,997.62
2017-07-25T08:02:10.775Z,997.62
2017-07-25T08:03:19.725Z,997.59
2017-07-25T08:04:28.691Z,997.59
2017-07-25T08:05:37.643Z,997.57
2017-07-25T08:06:46.597Z,997.63
2017-07-25T08:07:55.542Z,997.57
2017-07-25T08:09:04.498Z,997.59
2017-07-25T08:10:13.456Z,997.69
2017-07-25T08:11:22.730Z,997.88
2017-07-25T08:12:31.685Z,997.98
2017-07-25T08:13:40.637Z,997.96
2017-07-25T08:14:49.593Z,997.76
2017-07-25T08:15:58.545Z,997.75
2017-07-25T08:17:07.827Z,997.76
2017-07-25T08:18:16.778Z,997.73
2017-07-25T08:19:25.737Z,997.82
2017-07-25T08:20:34.698Z,998.01
2017-07-25T08:21:43.654Z,998.09
2017-07-25T08:22:52.600Z,998.04
2017-07-25T08:24:01.595Z,998.08
2017-07-25T08:25:10.539Z,998.12
2017-07-25T08:26:19.513Z,998.11
2017-07-25T08:27:28.469Z,998.01
2017-07-25T08:28:37.412Z,998.03
2017-07-25T08:29:46.363Z,998
2017-07-25T08:30:55.332Z,997.99
2017-07-25T08:32:04.288Z,998
2017-07-25T08:33:13.260Z,998
2017-07-25T08:34:22.220Z,998.11
2017-07-25T08:35:31.166Z,998.17
2017-07-25T08:36:40.119Z,998.29
2017-07-25T08:37:49.073Z,998.29
2017-07-25T08:38:58.028Z,998.18
2017-07-25T08:40:06.984Z,998.26
2017-07-25T08:41:15.943Z,998.28
2017-07-25T08:42:25.227Z,998.18
2017-07-25T08:43:34.178Z,998.19
2017-07-25T08:44:43.139Z,998.13
2017-07-25T08:45:52.089Z,998.07
2017-07-25T08:47:01.046Z,998.02
2017-07-25T08:48:09.995Z,997.97
2017-07-25T08:49:18.944Z,997.99
2017-07-25T08:50:27.893Z,998
2017-07-25T08:51:36.856Z,997.99
2017-07-25T08:52:45.814Z,998.05
2017-07-25T08:53:54.764Z,997.97
2017-07-25T08:55:03.721Z,998.01
2017-07-25T08:56:12.679Z,998.03
2017-07-25T08:57:21.636Z,998.01
2017-07-25T08:58:30.594Z,998.05
2017-07-25T08:59:39.544Z,997.99
2017-07-25T09:00:48.490Z,998.06
2017-07-25T09:01:57.449Z,998.08
2017-07-25T09:03:06.417Z,997.99
2017-07-25T09:04:15.375Z,997.87
2017-07-25T09:05:24.325Z,997.85
2017-07-25T09:06:33.278Z,997.86
2017-07-25T09:07:42.229Z,997.88
2017-07-25T09:08:51.172Z,997.78
2017-07-25T09:10:00.119Z,997.73
2017-07-25T09:11:09.072Z,997.77
2017-07-25T09:12:18.022Z,997.8
2017-07-25T09:13:26.981Z,997.87
2017-07-25T09:14:35.938Z,997.72
2017-07-25T09:15:44.916Z,997.74
2017-07-25T09:16:53.873Z,997.78
2017-07-25T09:18:03.220Z,997.81
2017-07-25T09:19:12.178Z,997.71
2017-07-25T09:20:21.140Z,997.69
2017-07-25T09:21:30.413Z,997.71
2017-07-25T09:22:39.367Z,997.8
2017-07-25T09:23:48.652Z,997.94
2017-07-25T09:24:57.604Z,998.09
2017-07-25T09:26:06.553Z,997.98
2017-07-25T09:27:15.496Z,998
2017-07-25T09:28:24.449Z,998.04
2017-07-25T09:29:33.404Z,998.18
2017-07-25T09:30:42.357Z,998.03
2017-07-25T09:31:51.325Z,997.89
2017-07-25T09:33:00.283Z,997.85
2017-07-25T09:34:09.246Z,997.91
2017-07-25T09:35:18.202Z,998.09
2017-07-25T09:36:27.146Z,998.25
2017-07-25T09:37:36.093Z,998.28
2017-07-25T09:38:45.055Z,998.22
2017-07-25T09:39:54.009Z,998.26
2017-07-25T09:41:02.968Z,998.26
2017-07-25T09:42:11.922Z,998.16
2017-07-25T09:43:20.885Z,998.2
2017-07-25T09:44:29.839Z,998.12
2017-07-25T09:45:38.787Z,997.97
2017-07-25T09:46:47.736Z,997.92
2017-07-25T09:47:56.687Z,997.87
2017-07-25T09:49:05.640Z,997.78
2017-07-25T09:50:14.601Z,997.83
2017-07-25T09:51:23.555Z,997.86
2017-07-25T09:52:32.520Z,997.83
2017-07-25T09:53:41.472Z,997.9
2017-07-25T09:54:50.430Z,997.94
2017-07-25T09:55:59.386Z,997.77
2017-07-25T09:57:08.352Z,997.61
2017-07-25T09:58:17.315Z,997.48
2017-07-25T09:59:26.273Z,997.46
2017-07-25T10:00:35.218Z,997.56
2017-07-25T10:01:44.173Z,997.55
2017-07-25T10:02:53.124Z,997.56
2017-07-25T10:04:02.086Z,997.47
2017-07-25T10:05:11.041Z,997.39
2017-07-25T10:06:19.996Z,997.46
2017-07-25T10:07:28.958Z,997.5
2017-07-25T10:08:37.915Z,997.48
2017-07-25T10:09:46.866Z,997.57
2017-07-25T10:10:55.829Z,997.59
2017-07-25T10:12:04.790Z,997.62
2017-07-25T10:13:14.061Z,997.64
2017-07-25T10:14:23.010Z,997.78
2017-07-25T10:15:31.975Z,997.82
2017-07-25T10:16:40.931Z,997.86
2017-07-25T10:17:49.873Z,997.81
2017-07-25T10:18:58.833Z,997.85
2017-07-25T10:20:07.804Z,997.96
2017-07-25T10:21:16.760Z,998
2017-07-25T10:22:25.717Z,998.16
2017-07-25T10:23:34.684Z,998.2
2017-07-25T10:24:43.635Z,997.94
2017-07-25T10:25:52.593Z,997.55
2017-07-25T10:27:01.559Z,997.33
2017-07-25T10:28:10.521Z,997.23
2017-07-25T10:29:19.475Z,997.12
2017-07-25T10:30:28.439Z,997
2017-07-25T10:31:37.391Z,997.02
2017-07-25T10:32:46.351Z,997
2017-07-25T10:33:55.301Z,997.06
2017-07-25T10:35:04.255Z,997.16
2017-07-25T10:36:13.205Z,997.17
2017-07-25T10:37:22.160Z,997.04
2017-07-25T10:38:31.119Z,997.09
2017-07-25T10:39:40.067Z,997.24
2017-07-25T10:40:49.044Z,997.43
2017-07-25T10:41:57.996Z,997.42
2017-07-25T10:43:07.272Z,997.45
2017-07-25T10:44:16.229Z,997.36
2017-07-25T10:45:25.188Z,997.22
2017-07-25T10:46:34.147Z,997.22
2017-07-25T10:47:43.132Z,997.16
2017-07-25T10:48:52.084Z,997.17
2017-07-25T10:50:01.038Z,997.15
2017-07-25T10:51:10.044Z,997.15
2017-07-25T10:52:19.006Z,997.17
2017-07-25T10:53:27.958Z,997.2
2017-07-25T10:54:36.911Z,997.15
2017-07-25T10:55:45.867Z,997.19
2017-07-25T10:56:54.827Z,997.19
2017-07-25T10:58:03.789Z,997.18
2017-07-25T10:59:12.740Z,997.18
2017-07-25T11:00:21.684Z,997.17
2017-07-25T11:01:30.642Z,997.16
2017-07-25T11:02:39.917Z,997.15
2017-07-25T11:03:48.875Z,997.19
2017-07-25T11:04:57.838Z,997.19
2017-07-25T11:06:06.799Z,997.15
2017-07-25T11:07:15.750Z,997.17
2017-07-25T11:08:24.701Z,997.09
2017-07-25T11:09:33.652Z,997.06
2017-07-25T11:10:42.605Z,997.06
2017-07-25T11:11:51.561Z,997.07
2017-07-25T11:13:00.526Z,997.06
2017-07-25T11:14:09.483Z,997.11
2017-07-25T11:15:18.430Z,997.11
2017-07-25T11:16:27.734Z,997.15
2017-07-25T11:17:36.684Z,997.19
2017-07-25T11:18:45.646Z,997.16
2017-07-25T11:19:54.604Z,997.14
2017-07-25T11:21:03.560Z,997.15
2017-07-25T11:22:12.510Z,997.12
2017-07-25T11:23:21.466Z,997.15
2017-07-25T11:24:30.418Z,997.15
2017-07-25T11:25:39.375Z,997.11
2017-07-25T11:26:48.337Z,997.14
2017-07-25T11:27:57.299Z,997.2
2017-07-25T11:29:06.249Z,997.2
2017-07-25T11:30:15.215Z,997.16
2017-07-25T11:31:24.170Z,997.12
2017-07-25T11:32:33.117Z,997.15
2017-07-25T11:33:42.098Z,997.12
2017-07-25T11:34:51.048Z,997.11
2017-07-25T11:36:00.004Z,997.12
2017-07-25T11:37:08.954Z,997.14
2017-07-25T11:38:18.223Z,997.14
2017-07-25T11:39:27.183Z,997.13
2017-07-25T11:40:36.158Z,997.15
2017-07-25T11:41:45.105Z,997.2
2017-07-25T11:42:54.060Z,997.16
2017-07-25T11:44:03.021Z,997.1
2017-07-25T11:45:11.980Z,997.13
2017-07-25T11:46:20.937Z,997.09
2017-07-25T11:47:29.885Z,997.09
2017-07-25T11:48:38.839Z,997.08
2017-07-25T11:49:47.794Z,997.09
2017-07-25T11:50:56.744Z,997.11
2017-07-25T11:52:05.698Z,997.11
2017-07-25T11:53:14.649Z,997.09
2017-07-25T11:54:23.604Z,997.09
2017-07-25T11:55:32.560Z,997.09
2017-07-25T11:56:41.833Z,997.06
2017-07-25T11:57:50.779Z,997.1
2017-07-25T11:58:59.725Z,997.12
2017-07-25T12:00:08.691Z,997.15
2017-07-25T12:01:17.646Z,997.16
2017-07-25T12:02:26.603Z,997.21
2017-07-25T12:03:35.558Z,997.15
2017-07-25T12:04:44.516Z,997.16
2017-07-25T12:05:53.461Z,997.16
2017-07-25T12:07:02.412Z,997.12
2017-07-25T12:08:11.375Z,997.08
2017-07-25T12:09:20.333Z,997.09
2017-07-25T12:10:29.288Z,997.09
2017-07-25T12:11:38.259Z,997.11
2017-07-25T12:12:47.211Z,997.08
2017-07-25T12:13:56.167Z,997.12
2017-07-25T12:15:05.128Z,997.13
2017-07-25T12:16:14.100Z,997.09
2017-07-25T12:17:23.066Z,997.11
2017-07-25T12:18:32.350Z,997.1
2017-07-25T12:19:41.321Z,997.1
2017-07-25T12:20:50.279Z,997.05
2017-07-25T12:21:59.239Z,997.07
2017-07-25T12:23:08.197Z,997.09
2017-07-25T12:24:17.156Z,997.06
2017-07-25T12:25:26.111Z,997.08
2017-07-25T12:26:35.406Z,997.08
2017-07-25T12:27:44.353Z,997.02
2017-07-25T12:28:53.305Z,997.06
2017-07-25T12:30:02.588Z,997.03
2017-07-25T12:31:11.543Z,996.98
2017-07-25T12:32:20.842Z,996.99
2017-07-25T12:33:29.814Z,997.02
2017-07-25T12:34:38.770Z,997.01
2017-07-25T12:35:47.731Z,996.99
2017-07-25T12:36:56.688Z,997.02
2017-07-25T12:38:05.652Z,997.05
2017-07-25T12:39:14.603Z,996.96
2017-07-25T12:40:23.556Z,996.98
2017-07-25T12:41:32.506Z,996.97
2017-07-25T12:42:41.469Z,996.99
2017-07-25T12:43:50.426Z,996.94
2017-07-25T12:44:59.386Z,996.98
2017-07-25T12:46:08.346Z,996.96
2017-07-25T12:47:17.300Z,996.95
2017-07-25T12:48:26.250Z,996.98
2017-07-25T12:49:35.201Z,996.97
2017-07-25T12:50:44.163Z,997.01
2017-07-25T12:51:53.129Z,996.96
2017-07-25T12:53:02.078Z,996.93
2017-07-25T12:54:11.031Z,996.99
2017-07-25T12:55:19.983Z,997
2017-07-25T12:56:28.943Z,996.98
2017-07-25T12:57:37.902Z,996.99
2017-07-25T12:58:46.863Z,996.97
2017-07-25T12:59:55.818Z,996.99
2017-07-25T13:01:04.765Z,996.99
2017-07-25T13:02:13.714Z,996.95
2017-07-25T13:03:22.660Z,996.95
2017-07-25T13:04:31.612Z,996.93
2017-07-25T13:05:40.574Z,996.93
2017-07-25T13:06:49.536Z,996.92
2017-07-25T13:07:58.807Z,996.87
2017-07-25T13:09:07.770Z,996.89
2017-07-25T13:10:16.720Z,996.91
2017-07-25T13:11:25.998Z,996.92
2017-07-25T13:12:34.958Z,996.9
2017-07-25T13:13:43.911Z,996.91
2017-07-25T13:14:52.866Z,996.91
2017-07-25T13:16:01.814Z,996.9
2017-07-25T13:17:10.791Z,996.85
2017-07-25T13:18:19.759Z,996.84
2017-07-25T13:19:28.716Z,996.87
2017-07-25T13:20:37.666Z,996.88
2017-07-25T13:21:46.620Z,996.88
2017-07-25T13:22:55.578Z,996.9
2017-07-25T13:24:04.528Z,996.9
2017-07-25T13:25:13.488Z,996.94
2017-07-25T13:26:22.449Z,996.96
2017-07-25T13:27:31.409Z,996.94
2017-07-25T13:28:40.373Z,996.95
2017-07-25T13:29:49.322Z,996.98
2017-07-25T13:30:58.275Z,996.96
2017-07-25T13:32:07.228Z,996.98
2017-07-25T13:33:16.192Z,996.95
2017-07-25T13:34:25.148Z,996.96
2017-07-25T13:35:34.110Z,996.98
2017-07-25T13:36:43.384Z,996.97
2017-07-25T13:37:52.337Z,996.93
2017-07-25T13:39:01.291Z,996.94
2017-07-25T13:40:10.255Z,996.92
2017-07-25T13:41:19.210Z,996.93
2017-07-25T13:42:28.172Z,996.94
2017-07-25T13:43:37.128Z,996.95
2017-07-25T13:44:46.088Z,996.98
2017-07-25T13:45:55.038Z,996.97
2017-07-25T13:47:03.992Z,996.98
2017-07-25T13:48:12.938Z,996.99
2017-07-25T13:49:21.906Z,996.96
2017-07-25T13:50:30.860Z,996.96
2017-07-25T13:51:39.823Z,996.93
2017-07-25T13:52:48.783Z,996.98
2017-07-25T13:53:57.735Z,996.97
2017-07-25T13:55:06.697Z,996.92
2017-07-25T13:56:15.652Z,996.94
2017-07-25T13:57:24.608Z,996.91
2017-07-25T13:58:33.567Z,996.91
2017-07-25T13:59:42.529Z,996.92
2017-07-25T14:00:51.481Z,996.92
2017-07-25T14:02:00.445Z,996.94
2017-07-25T14:03:09.394Z,996.92
2017-07-25T14:04:18.345Z,996.93
2017-07-25T14:05:27.295Z,996.95
2017-07-25T14:06:36.247Z,996.94
2017-07-25T14:07:45.202Z,996.96
2017-07-25T14:08:54.160Z,996.99
2017-07-25T14:10:03.132Z,996.95
2017-07-25T14:11:12.084Z,996.98
2017-07-25T14:12:21.047Z,996.94
2017-07-25T14:13:29.992Z,996.95
2017-07-25T14:14:38.945Z,996.95
2017-07-25T14:15:47.903Z,996.92
2017-07-25T14:16:56.854Z,996.93
2017-07-25T14:18:05.808Z,996.87
2017-07-25T14:19:14.764Z,996.88
2017-07-25T14:20:24.038Z,996.85
2017-07-25T14:21:33.004Z,996.84
2017-07-25T14:22:41.954Z,996.81